Time;durP1;ratioP1;P1;durP2;ratioP2;P2;SDS_P1;SDS_P2;PMS_P1;PMS_P2;Temp;Humidity;BMP_temperature;BMP_pressure;BME280_temperature;BME280_humidity;BME280_pressure;Samples;Min_cycle;Max_cycle;Signal;HPM_P1;HPM_P2
2022/05/04 00:01:08;;;;;;;17.00;12.95;;;;;;;12.43;100.00;100367.50;21026204;28;20051;-70
2022/05/04 00:11:10;;;;;;;20.02;13.82;;;;;;;12.22;100.00;100353.13;21037238;28;20156;-69
2022/05/04 00:21:12;;;;;;;18.17;13.32;;;;;;;12.04;100.00;100349.16;21037310;28;20566;-70
2022/05/04 00:31:13;;;;;;;24.60;17.13;;;;;;;12.00;100.00;100351.88;21036215;28;20559;-68
2022/05/04 00:41:15;;;;;;;21.70;16.50;;;;;;;11.72;100.00;100339.31;21036069;28;20143;-69
2022/05/04 00:51:17;;;;;;;24.25;15.85;;;;;;;11.45;100.00;100342.50;21034562;28;20138;-69
2022/05/04 01:01:18;;;;;;;24.58;16.50;;;;;;;11.38;100.00;100348.78;21032372;28;20121;-68
2022/05/04 01:11:22;;;;;;;22.33;16.23;;;;;;;11.19;100.00;100350.91;21031137;28;20044;-69
2022/05/04 01:21:23;;;;;;;25.08;16.27;;;;;;;11.23;100.00;100360.44;21031510;28;20048;-68
2022/05/04 01:31:25;;;;;;;23.35;15.90;;;;;;;11.26;100.00;100355.13;21030310;28;20052;-68
2022/05/04 01:42:13;;;;;;;23.88;16.42;;;;;;;11.23;100.00;100356.06;21031091;28;20041;-68
2022/05/04 01:51:51;;;;;;;21.87;16.67;;;;;;;11.33;100.00;100351.50;21027159;28;20052;-68
2022/05/04 02:01:53;;;;;;;20.38;16.70;;;;;;;11.46;100.00;100346.88;21028657;28;20036;-68
2022/05/04 02:11:55;;;;;;;19.95;14.48;;;;;;;11.29;100.00;100345.44;21027081;28;20064;-68
2022/05/04 02:21:56;;;;;;;21.90;15.77;;;;;;;11.14;100.00;100342.25;21023235;28;20048;-68
2022/05/04 02:31:59;;;;;;;21.58;16.13;;;;;;;11.15;100.00;100341.34;21025318;28;20052;-69
2022/05/04 02:42:01;;;;;;;20.95;16.48;;;;;;;11.24;100.00;100341.19;21025336;28;20072;-69
2022/05/04 02:52:03;;;;;;;18.65;14.95;;;;;;;11.14;100.00;100345.75;21024427;28;20059;-69
2022/05/04 03:12:26;;;;;;;19.15;14.38;;;;;;;11.34;100.00;100350.59;21023835;28;20051;-70
2022/05/04 03:22:28;;;;;;;22.48;16.73;;;;;;;11.48;100.00;100347.69;21024848;28;20492;-70
2022/05/04 03:32:30;;;;;;;19.05;15.13;;;;;;;11.39;100.00;100348.75;21023213;28;20052;-70
2022/05/04 03:42:32;;;;;;;22.52;17.17;;;;;;;11.39;100.00;100353.97;21038995;28;20049;-69
2022/05/04 03:52:34;;;;;;;26.15;19.65;;;;;;;11.34;100.00;100355.84;21038387;28;20064;-68
2022/05/04 04:02:36;;;;;;;23.30;17.17;;;;;;;11.36;100.00;100356.69;21036991;28;20048;-69
2022/05/04 04:12:37;;;;;;;25.77;17.33;;;;;;;11.28;100.00;100358.59;21037438;28;20061;-69
2022/05/04 04:22:39;;;;;;;24.65;16.50;;;;;;;11.18;100.00;100371.00;21037025;28;20055;-68
2022/05/04 04:32:40;;;;;;;20.90;14.98;;;;;;;11.27;100.00;100376.06;21035969;28;20436;-69
2022/05/04 04:42:42;;;;;;;19.08;14.57;;;;;;;11.39;100.00;100390.69;21035788;28;20043;-69
2022/05/04 04:52:43;;;;;;;18.85;12.57;;;;;;;11.59;100.00;100397.28;21034598;28;20101;-69
2022/05/04 05:02:45;;;;;;;17.00;11.82;;;;;;;11.97;100.00;100401.78;21032807;28;20040;-69
2022/05/04 05:12:50;;;;;;;14.75;11.38;;;;;;;12.16;100.00;100418.00;21032071;28;20080;-69
2022/05/04 05:22:51;;;;;;;14.10;10.63;;;;;;;12.59;100.00;100408.25;21031359;28;20044;-69
2022/05/04 05:32:53;;;;;;;16.00;11.45;;;;;;;12.63;100.00;100411.66;21030032;28;20651;-69
2022/05/04 05:42:54;;;;;;;15.25;10.65;;;;;;;12.67;100.00;100418.56;21029656;28;20090;-69
2022/05/04 05:52:56;;;;;;;16.10;10.98;;;;;;;12.98;100.00;100433.56;21025125;28;20056;-69
2022/05/04 06:02:58;;;;;;;14.32;9.68;;;;;;;13.60;100.00;100424.06;21026949;28;20503;-68
2022/05/04 06:13:00;;;;;;;13.63;10.15;;;;;;;13.90;100.00;100418.84;21026509;28;20766;-68
2022/05/04 06:23:01;;;;;;;15.60;10.15;;;;;;;14.56;98.95;100424.75;21025703;28;20041;-68
2022/05/04 06:43:23;;;;;;;12.63;9.57;;;;;;;15.10;95.23;100430.03;21024392;28;20040;-68
2022/05/04 06:53:25;;;;;;;13.75;10.63;;;;;;;15.10;91.81;100439.72;21026349;28;20052;-69
2022/05/04 07:03:26;;;;;;;17.00;10.98;;;;;;;15.37;83.64;100445.81;21012352;28;20507;-68
2022/05/04 07:13:28;;;;;;;15.77;10.38;;;;;;;15.37;80.46;100448.44;21014583;28;20080;-68
2022/05/04 07:23:29;;;;;;;12.60;8.98;;;;;;;15.56;77.82;100438.97;21015408;28;20525;-68
2022/05/04 07:33:31;;;;;;;14.02;8.90;;;;;;;16.03;73.00;100443.47;21014423;28;20044;-68
2022/05/04 07:43:33;;;;;;;14.40;8.93;;;;;;;16.20;66.80;100441.06;21017106;28;20047;-68
2022/05/04 07:53:35;;;;;;;18.52;10.10;;;;;;;16.16;71.18;100432.38;21013983;28;20052;-69
2022/05/04 08:13:57;;;;;;;13.45;9.20;;;;;;;17.19;63.92;100445.00;21010563;28;20058;-69
2022/05/04 08:24:02;;;;;;;11.48;8.20;;;;;;;17.68;62.48;100448.19;21017575;28;20082;-69
2022/05/04 08:34:15;;;;;;;11.63;8.03;;;;;;;17.36;61.07;100454.00;21025039;28;20117;-69
2022/05/04 08:44:18;;;;;;;13.63;8.45;;;;;;;17.15;60.39;100461.94;21022992;28;20048;-69
2022/05/04 08:54:20;;;;;;;12.07;6.25;;;;;;;17.81;64.74;100463.53;21026140;28;20390;-68
2022/05/04 09:04:21;;;;;;;10.45;7.80;;;;;;;18.20;62.67;100451.16;21023076;28;20044;-68
2022/05/04 09:14:26;;;;;;;13.65;8.27;;;;;;;18.02;59.40;100457.28;21024830;28;20052;-68
2022/05/04 09:24:29;;;;;;;9.00;6.82;;;;;;;18.26;59.17;100447.34;21018217;28;20059;-69
2022/05/04 09:34:35;;;;;;;14.97;8.70;;;;;;;17.49;62.91;100447.28;21009908;28;20496;-68
2022/05/04 09:44:54;;;;;;;12.82;8.02;;;;;;;17.54;60.09;100447.94;21022705;28;20101;-68
2022/05/04 09:54:58;;;;;;;15.35;9.77;;;;;;;17.25;61.21;100438.59;21019540;28;20052;-68
2022/05/04 10:05:00;;;;;;;12.37;8.60;;;;;;;17.81;61.38;100432.63;21019758;28;20500;-68
2022/05/04 10:15:02;;;;;;;12.30;8.95;;;;;;;17.72;59.17;100432.13;21015483;28;20321;-68
2022/05/04 10:25:05;;;;;;;15.82;9.20;;;;;;;18.10;57.01;100410.09;21018846;28;20489;-68
2022/05/04 10:35:28;;;;;;;10.13;7.22;;;;;;;18.70;58.13;100402.81;21017389;28;20056;-68
2022/05/04 10:45:35;;;;;;;13.00;8.70;;;;;;;19.05;58.43;100391.38;21003755;28;20054;-69
2022/05/04 10:55:39;;;;;;;11.73;6.75;;;;;;;19.40;64.39;100373.63;21013938;28;20109;-68
2022/05/04 11:05:47;;;;;;;13.43;8.32;;;;;;;19.71;53.49;100355.16;21015205;28;20110;-69
2022/05/04 11:15:52;;;;;;;12.05;8.52;;;;;;;19.63;54.13;100346.72;21015959;28;20106;-69
2022/05/04 11:25:54;;;;;;;12.98;8.55;;;;;;;19.54;56.25;100335.72;21015977;28;20552;-68
2022/05/04 11:35:56;;;;;;;13.93;9.35;;;;;;;19.23;53.77;100332.88;21014345;28;20061;-68
2022/05/04 11:45:58;;;;;;;11.68;8.85;;;;;;;19.46;55.55;100320.22;21015164;28;20049;-68
2022/05/04 11:56:03;;;;;;;11.55;7.88;;;;;;;19.86;55.25;100315.38;21019356;28;20086;-68
2022/05/04 12:06:09;;;;;;;12.77;9.48;;;;;;;19.67;52.14;100304.91;21025587;28;20037;-68
2022/05/04 12:16:12;;;;;;;13.45;8.10;;;;;;;19.84;53.12;100311.97;21028321;28;20099;-68
2022/05/04 12:26:15;;;;;;;13.50;7.70;;;;;;;19.87;54.74;100290.53;21029239;28;20121;-68
2022/05/04 12:36:18;;;;;;;14.05;9.10;;;;;;;20.35;50.97;100276.25;21027791;28;20193;-68
2022/05/04 12:46:20;;;;;;;11.50;8.23;;;;;;;20.40;52.84;100268.84;21027756;28;20052;-68
2022/05/04 13:06:42;;;;;;;11.73;6.70;;;;;;;20.96;51.26;100250.47;21023724;28;20097;-68
2022/05/04 13:16:44;;;;;;;8.57;6.10;;;;;;;20.49;52.29;100243.56;21025692;28;20404;-68
2022/05/04 13:26:45;;;;;;;9.68;5.68;;;;;;;20.10;52.81;100247.56;21023262;28;20443;-69
2022/05/04 13:36:47;;;;;;;9.05;5.93;;;;;;;20.17;53.39;100240.06;21020517;28;20143;-70
2022/05/04 13:46:48;;;;;;;10.18;6.47;;;;;;;20.13;54.98;100239.41;21021404;28;20044;-69
2022/05/04 13:56:50;;;;;;;9.07;5.85;;;;;;;20.00;56.94;100211.81;21020931;28;20044;-69
2022/05/04 14:06:51;;;;;;;9.50;6.45;;;;;;;20.07;62.48;100207.84;21020004;28;20056;-69
2022/05/04 14:16:53;;;;;;;13.57;9.40;;;;;;;20.12;63.25;100199.63;21018740;28;20051;-69
2022/05/04 14:26:56;;;;;;;11.80;8.40;;;;;;;20.25;58.59;100196.16;21018611;28;20048;-70
2022/05/04 14:36:57;;;;;;;10.27;7.22;;;;;;;20.78;54.58;100198.38;21017819;28;20056;-69
2022/05/04 14:46:59;;;;;;;12.90;7.13;;;;;;;21.01;49.21;100205.81;21017168;28;20040;-70
2022/05/04 14:57:01;;;;;;;7.43;4.50;;;;;;;20.94;47.80;100209.81;21016167;28;20139;-69
2022/05/04 15:07:03;;;;;;;7.78;5.10;;;;;;;21.68;45.37;100211.34;21016705;28;20044;-69
2022/05/04 15:17:05;;;;;;;6.40;4.10;;;;;;;21.47;44.95;100209.13;21017191;28;20410;-68
2022/05/04 15:27:07;;;;;;;9.38;4.75;;;;;;;21.11;47.57;100222.91;21016476;28;20078;-68
2022/05/04 15:37:09;;;;;;;8.60;4.97;;;;;;;20.92;48.62;100231.16;21030613;28;20109;-68
2022/05/04 15:47:10;;;;;;;7.72;4.30;;;;;;;20.67;45.68;100236.28;21027181;28;20097;-68
2022/05/04 15:57:12;;;;;;;8.18;3.97;;;;;;;19.79;48.15;100258.25;21030739;28;20052;-68
2022/05/04 16:07:13;;;;;;;9.30;4.45;;;;;;;17.74;61.18;100335.00;21028542;28;20051;-67
2022/05/04 16:27:35;;;;;;;12.75;7.65;;;;;;;14.76;100.00;100361.75;21028345;28;20432;-68
2022/05/04 16:37:36;;;;;;;14.77;6.93;;;;;;;14.47;100.00;100359.16;21027961;28;20097;-68
2022/05/04 16:47:38;;;;;;;12.35;8.75;;;;;;;14.79;100.00;100361.63;21026517;28;20048;-69
2022/05/04 16:57:39;;;;;;;9.18;6.55;;;;;;;14.90;100.00;100332.28;21027038;28;20055;-68
2022/05/04 17:07:41;;;;;;;12.05;6.85;;;;;;;15.12;100.00;100329.75;21024757;28;20044;-68
2022/05/04 17:17:43;;;;;;;8.80;5.60;;;;;;;15.30;98.02;100325.59;21026815;28;20048;-68
2022/05/04 17:27:45;;;;;;;9.82;6.32;;;;;;;15.62;100.00;100327.91;21025220;28;20500;-68
2022/05/04 17:37:47;;;;;;;11.43;7.55;;;;;;;15.56;100.00;100346.59;21023034;28;20501;-69
2022/05/04 17:47:48;;;;;;;9.20;6.57;;;;;;;15.46;100.00;100337.31;21022179;28;20122;-68
2022/05/04 17:57:50;;;;;;;8.32;5.70;;;;;;;15.45;100.00;100325.03;21020638;28;20508;-69
2022/05/04 18:07:51;;;;;;;10.82;7.38;;;;;;;15.43;100.00;100340.06;21018724;28;20149;-69
2022/05/04 18:17:53;;;;;;;14.93;8.60;;;;;;;15.25;100.00;100361.84;21020366;28;20040;-68
2022/05/04 18:27:55;;;;;;;9.80;7.13;;;;;;;14.53;100.00;100412.56;21018766;28;20449;-69
2022/05/04 18:37:56;;;;;;;11.13;6.70;;;;;;;14.39;100.00;100425.28;21017691;28;20052;-68
2022/05/04 18:47:58;;;;;;;9.73;6.05;;;;;;;14.22;100.00;100441.59;21021770;28;20044;-69
2022/05/04 18:58:02;;;;;;;9.00;5.70;;;;;;;14.15;100.00;100436.56;21017794;28;20097;-69
2022/05/04 19:08:04;;;;;;;10.20;6.97;;;;;;;14.10;100.00;100444.59;21012904;28;20105;-68
2022/05/04 19:18:06;;;;;;;11.32;7.65;;;;;;;13.73;100.00;100457.94;21016944;28;20056;-69
2022/05/04 19:28:09;;;;;;;8.90;6.45;;;;;;;13.09;100.00;100461.34;21017522;28;20048;-69
2022/05/04 19:38:11;;;;;;;8.40;5.22;;;;;;;13.43;100.00;100468.38;21007796;28;20082;-70
2022/05/04 19:48:12;;;;;;;7.97;5.88;;;;;;;13.26;100.00;100471.44;21016510;28;20466;-70
2022/05/04 19:58:14;;;;;;;11.60;7.00;;;;;;;13.13;100.00;100492.78;21011951;28;20397;-70
2022/05/04 20:08:15;;;;;;;8.95;6.47;;;;;;;12.87;100.00;100515.31;21012814;28;20071;-69
2022/05/04 20:18:17;;;;;;;9.52;7.22;;;;;;;12.77;100.00;100513.81;21019529;28;20052;-70
2022/05/04 20:28:19;;;;;;;11.02;7.20;;;;;;;12.43;100.00;100530.31;21029190;28;20075;-70
2022/05/04 20:48:41;;;;;;;12.55;8.93;;;;;;;12.43;100.00;100546.06;21027620;28;20044;-70
2022/05/04 20:58:42;;;;;;;13.00;7.20;;;;;;;12.07;100.00;100552.91;21028245;28;20540;-70
2022/05/04 21:08:44;;;;;;;10.05;7.97;;;;;;;12.12;100.00;100555.44;21026227;28;20128;-69
2022/05/04 21:18:46;;;;;;;10.32;7.43;;;;;;;12.35;100.00;100558.47;21028303;28;20044;-69
2022/05/04 21:28:48;;;;;;;11.52;8.20;;;;;;;12.44;100.00;100547.78;21024862;28;20121;-69
2022/05/04 21:38:50;;;;;;;10.77;8.38;;;;;;;12.47;100.00;100550.34;21025701;28;20036;-69
2022/05/04 21:48:51;;;;;;;9.63;7.40;;;;;;;12.63;100.00;100553.50;21025097;28;20078;-69
2022/05/04 21:58:53;;;;;;;10.20;8.30;;;;;;;12.74;100.00;100555.91;21023294;28;20055;-69
2022/05/04 22:08:54;;;;;;;10.45;7.68;;;;;;;12.79;100.00;100560.19;21020394;28;20056;-69
2022/05/04 22:18:57;;;;;;;10.90;8.30;;;;;;;12.70;100.00;100575.28;21031726;28;20520;-69
2022/05/04 22:28:58;;;;;;;16.48;8.90;;;;;;;12.67;100.00;100570.94;21029990;28;20040;-69
2022/05/04 22:39:00;;;;;;;10.48;8.52;;;;;;;12.66;100.00;100578.88;21024168;28;20047;-69
2022/05/04 22:49:01;;;;;;;12.38;8.65;;;;;;;12.68;100.00;100583.16;21023314;28;20113;-69
2022/05/04 22:59:03;;;;;;;13.02;9.88;;;;;;;12.64;100.00;100593.78;21026162;28;20109;-69
2022/05/04 23:09:04;;;;;;;11.27;9.27;;;;;;;12.53;100.00;100600.13;21024154;28;20044;-69
2022/05/04 23:19:06;;;;;;;11.95;8.93;;;;;;;12.51;100.00;100591.41;21024803;28;20044;-69
2022/05/04 23:29:07;;;;;;;13.60;8.75;;;;;;;12.54;100.00;100596.59;21024227;28;20091;-68
2022/05/04 23:39:09;;;;;;;11.50;8.40;;;;;;;12.55;100.00;100594.81;21023195;28;20036;-69
2022/05/04 23:49:12;;;;;;;13.70;9.05;;;;;;;12.53;100.00;100599.25;21023484;28;20049;-69
2022/05/04 23:59:16;;;;;;;12.43;8.90;;;;;;;12.46;100.00;100614.28;21039706;28;20055;-69
